LPMA

Details ICAO LPMA (FNC)
Name Madeira/Funchal - Cristiano Ronaldo
Region Portugal
Timezone Atlantic/Madeira (UTC+0.0)
Plans Departing 3339
Arriving 5361
Stats Elevation 189 ft / 58 m (AMSL)
Location 32.697900° -16.774400°
Runways 1
Magnetic Variation 4.619° W
Sunrise 2020-11-26 07:48:46 UTC / 2020-11-26 07:48:46 Local
Sunset 2020-11-26 18:03:15 UTC / 2020-11-26 18:03:15 Local
Advertisement - Login to hide

Runways

ID Width Length Bearing (true/mag) Surface Threshold Overrun Markings Lighting
05 148 ft / 45 m 9,133 ft / 2,784 m 44.60° / 49.22° ASPHALT 482 ft / 147 m 0 ft / 0 m PREC-APP CENTERLINE EDGE THRESHOLD TDZ REIL-OMNI
23 148 ft / 45 m 9,133 ft / 2,784 m 224.61° / 229.23° ASPHALT 482 ft / 147 m 0 ft / 0 m PREC-APP CENTERLINE EDGE THRESHOLD TDZ REIL-OMNI

Map

Weather


0- 5 10 15 20 25 30 35+ Temperature / °C

Clouds and Precipitation
Forecast for 2020-11-26 00:00 UTC. Updated 4 hours ago

Ground ~20,000 ft ~40,000 ft Winds

METAR

LPMA 260100Z 32008KT 250V030 9999 SCT015 FEW018CB 13/07 Q1016

TAF

TAF LPMA 252300Z 2600/2624 35015KT 9999 SCT015 TEMPO 2600/2624 35018G30KT 6000 SHRA BKN013 FEW018CB

Frequencies

Tower 118.35 MHz
Approach 119.20 MHz
Approach 119.60 MHz
Recorded 124.40 MHz ATIS
Warning: Do not use this data for real-world aviation or navigation. No guarantee of current accuracy is given.